createdAt,value
2023-06-21T00:00:46.828Z,15.30
2023-06-21T00:03:15.223Z,15.77
2023-06-21T00:05:42.462Z,16.15
2023-06-21T00:08:09.528Z,16.63
2023-06-21T00:10:36.414Z,16.10
2023-06-21T00:13:03.694Z,15.25
2023-06-21T00:15:30.711Z,15.25
2023-06-21T00:17:58.376Z,15.77
2023-06-21T00:20:25.600Z,16.90
2023-06-21T00:22:57.385Z,15.75
2023-06-21T00:25:25.351Z,15.93
2023-06-21T00:27:52.373Z,15.70
2023-06-21T00:30:19.276Z,16.50
2023-06-21T00:32:46.519Z,16.58
2023-06-21T00:35:13.455Z,16.42
2023-06-21T00:37:40.403Z,15.82
2023-06-21T00:40:13.519Z,16.40
2023-06-21T00:42:40.858Z,15.70
2023-06-21T00:45:10.198Z,15.30
2023-06-21T00:47:37.608Z,15.35
2023-06-21T00:50:05.491Z,16.10
2023-06-21T00:52:33.348Z,16.15
2023-06-21T00:55:00.354Z,16.52
2023-06-21T00:57:27.219Z,17.92
2023-06-21T00:59:54.676Z,16.02
2023-06-21T01:02:21.729Z,16.25
2023-06-21T01:04:50.839Z,14.88
2023-06-21T01:07:53.262Z,16.45
2023-06-21T01:10:38.850Z,16.52
2023-06-21T01:13:15.510Z,17.02
2023-06-21T01:15:47.436Z,17.17
2023-06-21T01:18:16.829Z,15.30
2023-06-21T01:20:50.997Z,17.50
2023-06-21T01:23:26.830Z,16.05
2023-06-21T01:26:04.590Z,16.48
2023-06-21T01:28:53.418Z,16.60
2023-06-21T01:31:24.792Z,15.45
2023-06-21T01:33:53.653Z,15.07
2023-06-21T01:36:21.259Z,15.23
2023-06-21T01:38:51.079Z,15.48
2023-06-21T01:41:24.533Z,15.07
2023-06-21T01:43:51.884Z,16.13
2023-06-21T01:46:22.735Z,14.70
2023-06-21T01:48:52.156Z,15.93
2023-06-21T01:51:20.755Z,14.50
2023-06-21T01:53:49.007Z,14.82
2023-06-21T01:56:18.342Z,14.23
2023-06-21T01:58:48.061Z,15.38
2023-06-21T02:01:15.521Z,14.90
2023-06-21T02:03:49.604Z,14.73
2023-06-21T02:06:18.097Z,14.57
2023-06-21T02:08:46.241Z,15.73
2023-06-21T02:11:14.545Z,15.10
2023-06-21T02:13:42.108Z,15.05
2023-06-21T02:16:09.878Z,15.30
2023-06-21T02:18:37.004Z,15.07
2023-06-21T02:21:04.434Z,14.57
2023-06-21T02:23:31.483Z,15.20
2023-06-21T02:25:58.647Z,15.75
2023-06-21T02:28:26.718Z,15.02
2023-06-21T02:30:53.888Z,14.30
2023-06-21T02:33:21.107Z,15.40
2023-06-21T02:35:48.503Z,15.10
2023-06-21T02:38:15.624Z,15.13
2023-06-21T02:40:43.819Z,15.43
2023-06-21T02:43:11.380Z,15.40
2023-06-21T02:45:39.127Z,15.65
2023-06-21T02:48:08.495Z,15.70
2023-06-21T02:50:36.987Z,14.18
2023-06-21T02:53:04.266Z,14.63
2023-06-21T02:55:31.806Z,15.15
2023-06-21T02:57:58.826Z,15.05
2023-06-21T03:00:30.263Z,14.82
2023-06-21T03:03:02.122Z,16.02
2023-06-21T03:05:37.694Z,15.98
2023-06-21T03:08:06.433Z,15.15
2023-06-21T03:10:34.420Z,14.60
2023-06-21T03:13:01.956Z,14.95
2023-06-21T03:15:29.505Z,14.82
2023-06-21T03:17:56.676Z,16.52
2023-06-21T03:20:26.770Z,15.73
2023-06-21T03:22:54.581Z,17.05
2023-06-21T03:25:21.624Z,16.38
2023-06-21T03:27:49.119Z,17.58
2023-06-21T03:30:16.492Z,16.80
2023-06-21T03:32:49.424Z,14.90
2023-06-21T03:35:18.778Z,17.00
2023-06-21T03:37:48.027Z,17.75
2023-06-21T03:40:15.818Z,17.73
2023-06-21T03:42:44.321Z,16.40
2023-06-21T03:45:12.196Z,15.40
2023-06-21T03:47:41.427Z,15.63
2023-06-21T03:50:09.884Z,15.63
2023-06-21T03:52:37.554Z,14.60
2023-06-21T03:55:05.758Z,14.40
2023-06-21T03:57:33.383Z,14.48
2023-06-21T04:04:33.096Z,13.23
2023-06-21T04:07:00.064Z,13.55
2023-06-21T04:09:26.911Z,14.07
2023-06-21T04:11:54.073Z,14.88
2023-06-21T04:14:20.898Z,14.23
2023-06-21T04:16:48.017Z,14.25
2023-06-21T04:19:15.138Z,13.43
2023-06-21T04:21:42.124Z,14.07
2023-06-21T04:24:09.241Z,13.13
2023-06-21T04:26:36.317Z,15.18
2023-06-21T04:29:03.447Z,14.65
2023-06-21T04:31:30.428Z,14.82
2023-06-21T04:33:59.716Z,14.73
2023-06-21T04:36:26.995Z,15.23
2023-06-21T04:38:56.308Z,15.48
2023-06-21T04:41:23.737Z,14.02
2023-06-21T04:43:52.288Z,14.07
2023-06-21T04:46:19.854Z,13.75
2023-06-21T04:48:49.433Z,13.43
2023-06-21T04:51:16.740Z,13.63
2023-06-21T04:53:50.323Z,13.25
2023-06-21T04:56:17.613Z,13.88
2023-06-21T04:58:45.574Z,12.82
2023-06-21T05:01:14.986Z,11.57
2023-06-21T05:03:43.491Z,12.27
2023-06-21T05:06:11.268Z,11.27
2023-06-21T05:08:39.713Z,11.65
2023-06-21T05:11:08.268Z,12.43
2023-06-21T05:13:35.420Z,11.55
2023-06-21T05:16:02.648Z,12.60
2023-06-21T05:18:30.670Z,11.98
2023-06-21T05:20:57.499Z,11.35
2023-06-21T05:23:25.381Z,11.98
2023-06-21T05:25:54.510Z,12.13
2023-06-21T05:28:23.394Z,10.82
2023-06-21T05:30:50.446Z,11.13
2023-06-21T05:33:17.632Z,10.30
2023-06-21T05:35:44.671Z,10.25
2023-06-21T05:38:14.799Z,13.18
2023-06-21T05:40:42.182Z,12.05
2023-06-21T05:43:09.115Z,11.63
2023-06-21T05:45:38.132Z,10.35
2023-06-21T05:48:05.755Z,11.88
2023-06-21T05:50:32.970Z,10.75
2023-06-21T05:53:00.048Z,11.90
2023-06-21T05:55:27.305Z,11.40
2023-06-21T05:57:55.362Z,11.20
2023-06-21T06:00:22.637Z,11.35
2023-06-21T06:02:50.879Z,10.82
2023-06-21T06:05:19.710Z,11.27
2023-06-21T06:07:47.542Z,10.32
2023-06-21T06:10:14.806Z,9.98
2023-06-21T06:12:41.661Z,10.05
2023-06-21T06:15:09.347Z,10.52
2023-06-21T06:17:36.507Z,10.38
2023-06-21T06:20:07.511Z,11.05
2023-06-21T06:22:37.309Z,11.98
2023-06-21T06:25:04.533Z,10.02
2023-06-21T06:27:31.433Z,10.50
2023-06-21T06:29:59.286Z,9.93
2023-06-21T06:32:28.832Z,10.30
2023-06-21T06:34:55.787Z,11.18
2023-06-21T06:37:30.727Z,10.93
2023-06-21T06:39:59.221Z,10.30
2023-06-21T06:42:26.158Z,11.73
2023-06-21T06:44:54.574Z,9.27
2023-06-21T06:47:21.897Z,9.43
2023-06-21T06:49:48.889Z,9.00
2023-06-21T06:52:15.899Z,8.88
2023-06-21T06:54:42.730Z,9.38
2023-06-21T06:57:13.647Z,9.32
2023-06-21T06:59:49.796Z,9.20
2023-06-21T07:02:16.806Z,11.90
2023-06-21T07:04:43.773Z,11.63
2023-06-21T07:07:10.707Z,11.90
2023-06-21T07:09:39.182Z,9.70
2023-06-21T07:12:06.557Z,9.55
2023-06-21T07:14:33.495Z,9.85
2023-06-21T07:17:00.526Z,8.48
2023-06-21T07:19:27.388Z,9.32
2023-06-21T07:21:54.280Z,8.45
2023-06-21T07:24:21.255Z,8.75
2023-06-21T07:26:48.143Z,8.80
2023-06-21T07:29:15.031Z,8.30
2023-06-21T07:31:41.903Z,8.98
2023-06-21T07:34:10.635Z,9.15
2023-06-21T07:36:39.937Z,9.85
2023-06-21T07:39:09.739Z,9.40
2023-06-21T07:41:36.887Z,8.88
2023-06-21T07:44:03.899Z,8.75
2023-06-21T07:46:30.936Z,8.40
2023-06-21T07:48:57.837Z,8.63
2023-06-21T07:51:24.773Z,8.52
2023-06-21T07:53:51.752Z,8.73
2023-06-21T07:56:18.776Z,8.50
2023-06-21T07:58:45.693Z,8.85
2023-06-21T08:01:13.630Z,8.27
2023-06-21T08:03:43.708Z,11.23
2023-06-21T08:06:10.618Z,14.80
2023-06-21T08:08:37.588Z,9.43
2023-06-21T08:11:05.041Z,8.68
2023-06-21T08:13:32.029Z,8.70
2023-06-21T08:15:58.928Z,9.95
2023-06-21T08:18:25.813Z,9.60
2023-06-21T08:20:53.010Z,10.38
2023-06-21T08:23:19.884Z,8.98
2023-06-21T08:25:47.894Z,7.93
2023-06-21T08:28:14.842Z,11.77
2023-06-21T08:30:41.793Z,11.55
2023-06-21T08:33:10.497Z,7.82
2023-06-21T08:35:38.947Z,9.48
2023-06-21T08:38:22.572Z,8.20
2023-06-21T08:40:55.155Z,8.43
2023-06-21T08:43:22.942Z,7.57
2023-06-21T08:45:50.857Z,8.55
2023-06-21T08:48:20.031Z,8.60
2023-06-21T08:50:47.346Z,8.75
2023-06-21T08:53:21.352Z,7.90
2023-06-21T08:55:49.149Z,7.93
2023-06-21T08:58:21.774Z,8.02
2023-06-21T09:00:54.929Z,7.18
2023-06-21T09:03:37.853Z,7.68
2023-06-21T09:06:11.872Z,6.85
2023-06-21T09:08:41.898Z,6.70
2023-06-21T09:11:11.025Z,6.43
2023-06-21T09:13:39.893Z,6.60
2023-06-21T09:16:08.134Z,7.15
2023-06-21T09:18:40.767Z,8.07
2023-06-21T09:21:11.749Z,7.20
2023-06-21T09:23:42.219Z,7.90
2023-06-21T09:26:10.401Z,7.85
2023-06-21T09:28:37.448Z,7.38
2023-06-21T09:31:04.381Z,8.27
2023-06-21T09:33:31.362Z,10.07
2023-06-21T09:35:58.930Z,7.75
2023-06-21T09:38:27.630Z,8.85
2023-06-21T09:40:54.545Z,7.53
2023-06-21T09:43:23.049Z,7.72
2023-06-21T09:46:09.456Z,7.50
2023-06-21T09:51:06.905Z,6.68
2023-06-21T09:53:34.154Z,7.55
2023-06-21T09:56:02.275Z,7.30
2023-06-21T09:58:32.909Z,7.18
2023-06-21T10:01:01.772Z,7.50
2023-06-21T10:03:29.051Z,8.68
2023-06-21T10:05:57.748Z,8.52
2023-06-21T10:08:37.765Z,8.18
2023-06-21T10:11:04.811Z,8.27
2023-06-21T10:13:33.897Z,8.10
2023-06-21T10:16:03.011Z,7.43
2023-06-21T10:18:30.674Z,8.23
2023-06-21T10:21:03.080Z,7.95
2023-06-21T10:23:33.515Z,7.55
2023-06-21T10:26:03.077Z,7.40
2023-06-21T10:28:36.482Z,8.35
2023-06-21T10:31:05.330Z,8.05
2023-06-21T10:33:35.409Z,7.43
2023-06-21T10:36:04.800Z,7.22
2023-06-21T10:38:44.236Z,6.70
2023-06-21T10:41:13.524Z,7.20
2023-06-21T10:43:41.863Z,6.95
2023-06-21T10:46:11.283Z,7.57
2023-06-21T10:48:39.060Z,7.80
2023-06-21T10:51:06.891Z,7.47
2023-06-21T10:53:35.303Z,7.03
2023-06-21T10:56:05.672Z,8.32
2023-06-21T10:58:33.001Z,8.85
2023-06-21T11:01:00.212Z,7.45
2023-06-21T11:03:28.394Z,7.22
2023-06-21T11:06:30.122Z,7.00
2023-06-21T11:09:08.145Z,7.95
2023-06-21T11:11:40.975Z,7.63
2023-06-21T11:14:08.284Z,6.72
2023-06-21T11:16:36.729Z,7.93
2023-06-21T11:19:15.418Z,8.98
2023-06-21T11:21:52.061Z,7.97
2023-06-21T11:24:20.983Z,7.07
2023-06-21T11:27:04.475Z,8.48
2023-06-21T11:29:37.059Z,8.10
2023-06-21T11:32:15.197Z,17.77
2023-06-21T11:35:02.156Z,9.20
2023-06-21T11:37:48.941Z,7.35
2023-06-21T11:40:17.513Z,8.30
2023-06-21T11:42:49.401Z,7.50
2023-06-21T11:45:37.232Z,7.97
2023-06-21T11:48:04.253Z,7.45
2023-06-21T11:50:36.856Z,8.30
2023-06-21T11:53:30.820Z,8.30
2023-06-21T11:56:01.652Z,8.40
2023-06-21T11:58:29.669Z,9.48
2023-06-21T12:14:59.223Z,8.10
2023-06-21T12:17:26.258Z,8.40
2023-06-21T12:19:53.353Z,8.48
2023-06-21T12:22:22.561Z,8.18
2023-06-21T12:24:53.554Z,8.52
2023-06-21T12:27:20.549Z,8.57
2023-06-21T12:29:56.609Z,8.10
2023-06-21T12:34:50.614Z,7.80
2023-06-21T12:37:24.600Z,7.45
2023-06-21T12:39:54.891Z,8.13
2023-06-21T12:42:31.147Z,8.15
2023-06-21T12:44:59.281Z,8.20
2023-06-21T12:47:26.706Z,9.00
2023-06-21T12:50:01.685Z,8.07
2023-06-21T12:52:30.269Z,7.82
2023-06-21T12:54:57.848Z,8.65
2023-06-21T12:57:31.593Z,7.60
2023-06-21T12:59:59.032Z,7.55
2023-06-21T13:02:29.317Z,7.18
2023-06-21T13:04:57.246Z,8.50
2023-06-21T13:07:24.189Z,8.25
2023-06-21T13:09:51.739Z,8.60
2023-06-21T13:12:19.266Z,8.70
2023-06-21T13:14:46.765Z,8.63
2023-06-21T13:17:13.707Z,8.55
2023-06-21T13:22:22.200Z,6.90
2023-06-21T13:24:50.473Z,6.90
2023-06-21T13:27:18.384Z,7.25
2023-06-21T13:29:45.226Z,7.00
2023-06-21T13:32:12.170Z,7.50
2023-06-21T13:34:39.047Z,7.05
2023-06-21T13:37:06.037Z,6.40
2023-06-21T13:39:34.510Z,7.22
2023-06-21T13:42:02.238Z,6.80
2023-06-21T13:44:29.173Z,7.43
2023-06-21T13:46:56.149Z,6.63
2023-06-21T13:49:23.029Z,6.97
2023-06-21T13:51:49.948Z,6.72
2023-06-21T13:54:16.926Z,7.13
2023-06-21T13:56:43.892Z,7.35
2023-06-21T13:59:10.751Z,8.18
2023-06-21T14:01:37.695Z,6.88
2023-06-21T14:04:05.978Z,6.80
2023-06-21T14:06:33.109Z,7.07
2023-06-21T14:08:59.965Z,6.70
2023-06-21T14:11:26.791Z,7.13
2023-06-21T14:13:53.749Z,6.55
2023-06-21T14:16:20.778Z,7.80
2023-06-21T14:18:48.586Z,7.50
2023-06-21T14:21:16.728Z,6.68
2023-06-21T14:23:43.850Z,9.65
2023-06-21T14:26:10.722Z,7.53
2023-06-21T14:28:40.896Z,6.75
2023-06-21T14:31:08.055Z,6.70
2023-06-21T14:33:34.950Z,6.95
2023-06-21T14:36:01.829Z,6.25
2023-06-21T14:38:30.510Z,6.68
2023-06-21T14:40:57.880Z,6.55
2023-06-21T14:43:24.693Z,6.25
2023-06-21T14:45:54.030Z,6.40
2023-06-21T14:48:21.385Z,6.32
2023-06-21T14:50:48.299Z,6.07
2023-06-21T14:53:15.335Z,6.90
2023-06-21T14:55:44.847Z,7.88
2023-06-21T14:58:11.700Z,6.78
2023-06-21T15:00:40.089Z,6.85
2023-06-21T15:03:07.145Z,7.43
2023-06-21T15:05:34.125Z,7.20
2023-06-21T15:08:02.541Z,7.78
2023-06-21T15:10:29.886Z,8.20
2023-06-21T15:13:02.061Z,7.70
2023-06-21T15:15:30.534Z,7.40
2023-06-21T15:17:57.954Z,7.22
2023-06-21T15:20:24.925Z,8.00
2023-06-21T15:22:51.992Z,7.72
2023-06-21T15:25:19.025Z,7.20
2023-06-21T15:27:46.026Z,7.30
2023-06-21T15:30:14.324Z,7.53
2023-06-21T15:32:41.564Z,7.45
2023-06-21T15:35:10.792Z,7.32
2023-06-21T15:37:40.550Z,6.68
2023-06-21T15:40:11.465Z,7.55
2023-06-21T15:42:43.727Z,8.00
2023-06-21T15:45:11.076Z,7.30
2023-06-21T15:47:38.143Z,7.53
2023-06-21T15:50:07.958Z,7.88
2023-06-21T15:52:34.960Z,7.40
2023-06-21T15:55:01.783Z,7.28
2023-06-21T15:57:28.668Z,7.20
2023-06-21T15:59:55.641Z,7.03
2023-06-21T16:05:05.218Z,7.38
2023-06-21T16:07:32.196Z,6.95
2023-06-21T16:09:59.983Z,7.57
2023-06-21T16:12:27.057Z,6.90
2023-06-21T16:14:55.796Z,7.65
2023-06-21T16:17:23.515Z,7.95
2023-06-21T16:19:50.539Z,7.53
2023-06-21T16:22:17.634Z,7.40
2023-06-21T16:24:44.642Z,6.85
2023-06-21T16:27:11.716Z,7.03
2023-06-21T16:29:38.547Z,7.07
2023-06-21T16:32:05.800Z,7.07
2023-06-21T16:34:32.908Z,7.32
2023-06-21T16:36:59.817Z,7.35
2023-06-21T16:39:26.662Z,7.55
2023-06-21T16:41:53.688Z,8.00
2023-06-21T16:44:20.595Z,7.68
2023-06-21T16:46:47.451Z,7.60
2023-06-21T16:49:14.372Z,8.68
2023-06-21T16:51:41.178Z,8.52
2023-06-21T16:54:09.090Z,7.85
2023-06-21T16:56:36.005Z,7.40
2023-06-21T16:59:03.795Z,8.05
2023-06-21T17:01:30.697Z,7.13
2023-06-21T17:03:57.726Z,7.25
2023-06-21T17:06:25.620Z,7.78
2023-06-21T17:08:55.545Z,7.93
2023-06-21T17:11:24.080Z,8.40
2023-06-21T17:13:51.162Z,7.03
2023-06-21T17:16:18.003Z,9.15
2023-06-21T17:18:44.936Z,7.93
2023-06-21T17:21:11.785Z,8.00
2023-06-21T17:23:40.736Z,7.78
2023-06-21T17:26:09.854Z,8.40
2023-06-21T17:28:37.612Z,11.63
2023-06-21T17:31:04.622Z,11.20
2023-06-21T17:33:31.680Z,11.07
2023-06-21T17:35:58.985Z,10.50
2023-06-21T17:38:25.951Z,12.98
2023-06-21T17:40:53.026Z,12.57
2023-06-21T17:43:20.179Z,11.27
2023-06-21T17:45:47.066Z,9.48
2023-06-21T17:48:15.146Z,9.32
2023-06-21T17:50:42.242Z,8.10
2023-06-21T17:53:10.126Z,8.18
2023-06-21T17:55:37.211Z,8.13
2023-06-21T17:58:06.525Z,9.00
2023-06-21T18:00:34.985Z,8.55
2023-06-21T18:03:01.967Z,8.07
2023-06-21T18:05:29.040Z,7.88
2023-06-21T18:07:56.244Z,7.53
2023-06-21T18:10:23.225Z,7.40
2023-06-21T18:12:50.059Z,8.23
2023-06-21T18:15:17.503Z,8.65
2023-06-21T18:17:44.458Z,8.52
2023-06-21T18:20:12.997Z,9.23
2023-06-21T18:22:43.685Z,8.25
2023-06-21T18:25:11.097Z,7.65
2023-06-21T18:27:37.966Z,7.78
2023-06-21T18:30:10.010Z,8.98
2023-06-21T18:32:39.237Z,9.80
2023-06-21T18:35:09.860Z,9.50
2023-06-21T18:37:39.900Z,9.23
2023-06-21T18:40:08.796Z,10.68
2023-06-21T18:42:35.890Z,10.18
2023-06-21T18:45:02.926Z,10.77
2023-06-21T18:47:29.868Z,11.48
2023-06-21T18:49:58.473Z,12.43
2023-06-21T18:52:25.442Z,12.77
2023-06-21T18:54:52.800Z,12.52
2023-06-21T18:57:19.879Z,12.43
2023-06-21T18:59:46.933Z,12.57
2023-06-21T19:02:13.833Z,14.65
2023-06-21T19:04:43.767Z,12.25
2023-06-21T19:07:11.582Z,13.20
2023-06-21T19:09:38.681Z,12.95
2023-06-21T19:12:06.415Z,13.68
2023-06-21T19:14:33.827Z,12.90
2023-06-21T19:17:01.534Z,15.15
2023-06-21T19:19:28.413Z,14.48
2023-06-21T19:21:59.724Z,15.38
2023-06-21T19:24:28.883Z,14.35
2023-06-21T19:26:55.971Z,15.93
2023-06-21T19:29:23.045Z,16.95
2023-06-21T19:31:50.467Z,15.45
2023-06-21T19:34:21.268Z,16.52
2023-06-21T19:36:48.213Z,15.75
2023-06-21T19:39:15.472Z,16.67
2023-06-21T19:41:42.352Z,16.70
2023-06-21T19:44:11.511Z,17.52
2023-06-21T19:46:40.844Z,17.13
2023-06-21T19:49:07.869Z,16.17
2023-06-21T19:51:34.923Z,17.70
2023-06-21T19:54:02.451Z,17.70
2023-06-21T19:56:29.460Z,17.42
2023-06-21T19:58:58.312Z,14.90
2023-06-21T20:04:34.353Z,17.47
2023-06-21T20:07:01.660Z,15.13
2023-06-21T20:09:28.890Z,16.92
2023-06-21T20:11:56.244Z,16.33
2023-06-21T20:14:23.294Z,17.33
2023-06-21T20:16:50.234Z,16.25
2023-06-21T20:19:17.321Z,17.63
2023-06-21T20:21:46.938Z,16.13
2023-06-21T20:24:15.063Z,17.00
2023-06-21T20:26:43.360Z,16.58
2023-06-21T20:29:10.408Z,16.73
2023-06-21T20:31:37.738Z,17.80
2023-06-21T20:34:04.840Z,16.38
2023-06-21T20:36:34.798Z,16.50
2023-06-21T20:39:06.991Z,15.50
2023-06-21T20:41:33.947Z,15.80
2023-06-21T20:44:03.204Z,15.13
2023-06-21T20:46:30.356Z,16.13
2023-06-21T20:48:59.751Z,13.52
2023-06-21T20:51:26.812Z,14.15
2023-06-21T20:53:53.909Z,14.95
2023-06-21T20:56:22.930Z,12.85
2023-06-21T20:58:49.834Z,12.73
2023-06-21T21:01:16.997Z,12.07
2023-06-21T21:03:45.955Z,13.00
2023-06-21T21:06:13.237Z,14.10
2023-06-21T21:08:40.870Z,14.88
2023-06-21T21:11:10.715Z,14.23
2023-06-21T21:13:41.880Z,13.02
2023-06-21T21:16:09.198Z,12.15
2023-06-21T21:18:36.072Z,12.18
2023-06-21T21:21:07.166Z,13.18
2023-06-21T21:23:34.015Z,12.85
2023-06-21T21:26:00.913Z,13.30
2023-06-21T21:28:28.152Z,13.75
2023-06-21T21:30:55.178Z,13.32
2023-06-21T21:33:22.170Z,13.95
2023-06-21T21:35:49.324Z,14.45
2023-06-21T21:38:16.272Z,14.88
2023-06-21T21:40:43.152Z,14.10
2023-06-21T21:43:10.474Z,13.32
2023-06-21T21:45:37.332Z,13.57
2023-06-21T21:48:04.764Z,13.48
2023-06-21T21:50:31.885Z,14.45
2023-06-21T21:52:58.797Z,14.32
2023-06-21T21:55:27.591Z,14.27
2023-06-21T21:57:54.536Z,15.10
2023-06-21T22:00:21.782Z,13.70
2023-06-21T22:02:49.116Z,14.88
2023-06-21T22:05:16.269Z,15.23
2023-06-21T22:07:43.261Z,15.38
2023-06-21T22:10:17.921Z,14.80
2023-06-21T22:12:52.577Z,15.10
2023-06-21T22:15:19.488Z,14.77
2023-06-21T22:17:46.473Z,14.32
2023-06-21T22:20:16.817Z,12.98
2023-06-21T22:22:44.300Z,13.85
2023-06-21T22:25:14.386Z,11.98
2023-06-21T22:27:42.242Z,13.68
2023-06-21T22:30:10.656Z,13.20
2023-06-21T22:32:37.706Z,12.75
2023-06-21T22:35:05.176Z,14.77
2023-06-21T22:37:35.066Z,13.68
2023-06-21T22:40:02.110Z,13.50
2023-06-21T22:42:29.082Z,16.70
2023-06-21T22:44:56.143Z,14.35
2023-06-21T22:47:24.840Z,13.30
2023-06-21T22:49:54.663Z,13.43
2023-06-21T22:52:21.789Z,14.00
2023-06-21T22:54:48.626Z,12.93
2023-06-21T22:57:15.744Z,13.10
2023-06-21T22:59:42.654Z,12.82
2023-06-21T23:02:09.837Z,13.25
2023-06-21T23:04:36.998Z,13.95
2023-06-21T23:07:04.189Z,12.60
2023-06-21T23:09:32.465Z,12.45
2023-06-21T23:11:59.776Z,13.15
2023-06-21T23:14:26.777Z,12.68
2023-06-21T23:16:53.717Z,12.77
2023-06-21T23:19:20.748Z,11.98
2023-06-21T23:21:47.692Z,13.27
2023-06-21T23:24:14.998Z,12.85
2023-06-21T23:26:42.589Z,13.25
2023-06-21T23:29:12.665Z,13.52
2023-06-21T23:31:40.010Z,13.00
2023-06-21T23:34:07.391Z,14.18
2023-06-21T23:36:34.904Z,13.07
2023-06-21T23:39:02.260Z,13.13
2023-06-21T23:41:30.360Z,13.68
2023-06-21T23:44:00.403Z,12.80
2023-06-21T23:46:32.013Z,13.20
2023-06-21T23:49:00.932Z,12.65
2023-06-21T23:51:31.339Z,13.57
2023-06-21T23:53:59.001Z,14.70
2023-06-21T23:56:27.887Z,14.25
2023-06-21T23:58:55.228Z,13.93
